Belle Chasse — WDG2912 — position and weather

sailwx.info

Track history (hours):
 
Tides and Currents Weather Stations Pressure Air Temp Water Temp Dewpoint Dewpoint Depression Visibility Wind Speed Wind Dir Waves Ship Positions

Belle Chasse

Owner: Higman Barge Lines, Inc, Orange, TX. More information available from US FCC via Universal Licensing System and Coast Guard Vessel Documentation Center.

Last reported at 2016-Aug-29 20:13 UTC. Time now 2016-Aug-30 07:22 UTC.
Position N 29°33' W 090°26'.

Length 26 m; draft 3 m.

Type: Towing. MMSI: 367520550.

Date/timePositionNaut miles runAvg speedWind from/ knotsBaromVisibWave heightAir tempDewpointWater temp
2016-Aug-29 20:13N 29°33' W 090°26'3 4.4
2016-Aug-29 19:33N 29°34' W 090°29'5 5.0
2016-Aug-29 18:33N 29°35' W 090°35'5 5.0
2016-Aug-29 17:34N 29°36' W 090°40'3 3.4
2016-Aug-29 16:33N 29°34' W 090°43'3 3.4
2016-Aug-29 15:33N 29°32' W 090°47'7 6.3
2016-Aug-29 14:30N 29°33' W 090°54'49 4.1
2016-Aug-29 02:21N 29°47' W 091°49'4 4.9
2016-Aug-29 01:33N 29°51' W 091°51'6 5.9
2016-Aug-29 00:33N 29°50' W 091°58'6 6.1
2016-Aug-28 23:33N 29°48' W 092°04'6 5.5
2016-Aug-28 22:33N 29°47' W 092°11'5 4.9
2016-Aug-28 21:33N 29°48' W 092°16'6 5.9
2016-Aug-28 20:33N 29°51' W 092°22'6 6.0
2016-Aug-28 19:32N 29°54' W 092°28'19 3.9
2016-Aug-28 14:33N 29°58' W 092°50'6 6.1
2016-Aug-28 13:32N 29°56' W 092°57'5 5.5
2016-Aug-28 12:33N 29°56' W 093°03'5 5.2
2016-Aug-28 11:34N 29°56' W 093°09'5 5.1
2016-Aug-28 10:33N 29°60' W 093°13'4 4.1
2016-Aug-28 09:33N 30°03' W 093°16'1 0.6
2016-Aug-28 08:19N 30°04' W 093°16'1 0.9
2016-Aug-28 07:33N 30°04' W 093°17'3 2.5
2016-Aug-28 06:33N 30°06' W 093°19'0 0.0
2016-Aug-28 05:33N 30°06' W 093°19'0 0.1
2016-Aug-28 04:33N 30°06' W 093°19'4 3.6
2016-Aug-28 03:33N 30°04' W 093°22'1 1.3
2016-Aug-28 02:33N 30°04' W 093°23'4 4.1
2016-Aug-28 01:30N 30°04' W 093°28'0 0.0
2016-Aug-28 00:33N 30°04' W 093°28'4 4.3
2016-Aug-27 23:34N 30°04' W 093°33'5 5.1
2016-Aug-27 22:34N 30°04' W 093°39'4 3.8
2016-Aug-27 21:34N 30°05' W 093°43'0 0.2
2016-Aug-27 20:31N 30°05' W 093°44'0 0.0
2016-Aug-27 19:31N 30°05' W 093°44'0 0.0
2016-Aug-27 18:31N 30°05' W 093°44'0 0.0
2016-Aug-27 17:31N 30°05' W 093°44'0 0.0
2016-Aug-27 16:31N 30°05' W 093°44'0 0.0
2016-Aug-27 15:28N 30°05' W 093°44'0 0.0
2016-Aug-27 14:31N 30°05' W 093°44'0 0.0
2016-Aug-27 13:31N 30°05' W 093°44'0 0.0
2016-Aug-27 12:28N 30°05' W 093°44'0 0.0
2016-Aug-27 11:31N 30°05' W 093°44'0 0.0
2016-Aug-27 10:31N 30°05' W 093°44'0 0.0
2016-Aug-27 09:31N 30°05' W 093°44'0 0.0
2016-Aug-27 08:31N 30°05' W 093°44'0 0.0
2016-Aug-27 07:31N 30°05' W 093°44'0 0.0
2016-Aug-27 06:31N 30°05' W 093°44'0 0.0
2016-Aug-27 04:16N 30°05' W 093°44'0 0.0
2016-Aug-27 03:31N 30°05' W 093°44'0 0.0
2016-Aug-27 02:31N 30°05' W 093°44'0 0.0
2016-Aug-27 00:31N 30°05' W 093°44'0 0.4
2016-Aug-26 23:30N 30°05' W 093°44'0 0.0
2016-Aug-26 22:33N 30°05' W 093°44'0 0.4
2016-Aug-26 21:23N 30°05' W 093°44'0 0.0
2016-Aug-26 20:29N 30°05' W 093°44'0 0.5
2016-Aug-26 19:30N 30°05' W 093°43'4 4.5
2016-Aug-26 18:33N 30°01' W 093°46'7 6.5
2016-Aug-26 17:24N 29°56' W 093°52'5 4.0
2016-Aug-26 16:07N 29°52' W 093°56'5 7.8
2016-Aug-26 15:32N 29°55' W 093°53'7 0.1
2016-Aug-24 13:23N 30°01' W 093°59'1 0.7
2016-Aug-24 12:25N 30°01' W 093°58'2 2.8
2016-Aug-24 11:33N 29°59' W 093°56'1 0.1
2016-Aug-24 01:13N 29°60' W 093°55'3 3.8
2016-Aug-24 00:24N 29°58' W 093°52'1 1.1
2016-Aug-23 23:32N 29°59' W 093°52'2 0.1
2016-Aug-23 07:29N 29°60' W 093°55'0 0.0
2016-Aug-23 06:32N 29°60' W 093°55'0 0.0
2016-Aug-23 05:32N 29°60' W 093°55'0 0.0
2016-Aug-23 04:29N 29°60' W 093°55'0 0.0
2016-Aug-23 01:08N 29°60' W 093°55'0 0.0
2016-Aug-23 00:11N 29°60' W 093°55'0 0.0
2016-Aug-22 21:23N 29°60' W 093°55'  
2016-Aug-20 15:18N 29°59' W 093°53'4 4.9
2016-Aug-20 14:31N 29°55' W 093°53'7 6.2
2016-Aug-20 13:27N 29°50' W 093°57'4 4.2
2016-Aug-20 12:30N 29°47' W 094°01'5 4.9
2016-Aug-20 11:27N 29°44' W 094°06'18 4.6
2016-Aug-20 07:26N 29°36' W 094°24'4 4.0
2016-Aug-20 06:22N 29°33' W 094°28'22 3.1
2016-Aug-19 23:32N 29°31' W 094°53'7 7.1
2016-Aug-19 22:33N 29°36' W 094°57'7 7.0
2016-Aug-19 21:33N 29°43' W 095°01'5 4.7
2016-Aug-19 20:32N 29°46' W 095°05'  
Track history (hours):
 
Tides and Currents Weather Stations Pressure Air Temp Water Temp Dewpoint Dewpoint Depression Visibility Wind Speed Wind Dir Waves Ship Positions

Belle Chasse

Owner: Higman Barge Lines, Inc, Orange, TX. More information available from US FCC via Universal Licensing System and Coast Guard Vessel Documentation Center.

Last reported at 2016-Aug-29 20:13 UTC. Time now 2016-Aug-30 07:22 UTC.
Position N 29°33' W 090°26'.

Length 26 m; draft 3 m.

Type: Towing. MMSI: 367520550.

Date/timePositionNaut miles runAvg speedWind from/ knotsBaromVisibWave heightAir tempDewpointWater temp
2016-Aug-29 20:13N 29°33' W 090°26'3 4.4
2016-Aug-29 19:33N 29°34' W 090°29'5 5.0
2016-Aug-29 18:33N 29°35' W 090°35'5 5.0
2016-Aug-29 17:34N 29°36' W 090°40'3 3.4
2016-Aug-29 16:33N 29°34' W 090°43'3 3.4
2016-Aug-29 15:33N 29°32' W 090°47'7 6.3
2016-Aug-29 14:30N 29°33' W 090°54'49 4.1
2016-Aug-29 02:21N 29°47' W 091°49'4 4.9
2016-Aug-29 01:33N 29°51' W 091°51'6 5.9
2016-Aug-29 00:33N 29°50' W 091°58'6 6.1
2016-Aug-28 23:33N 29°48' W 092°04'6 5.5
2016-Aug-28 22:33N 29°47' W 092°11'5 4.9
2016-Aug-28 21:33N 29°48' W 092°16'6 5.9
2016-Aug-28 20:33N 29°51' W 092°22'6 6.0
2016-Aug-28 19:32N 29°54' W 092°28'19 3.9
2016-Aug-28 14:33N 29°58' W 092°50'6 6.1
2016-Aug-28 13:32N 29°56' W 092°57'5 5.5
2016-Aug-28 12:33N 29°56' W 093°03'5 5.2
2016-Aug-28 11:34N 29°56' W 093°09'5 5.1
2016-Aug-28 10:33N 29°60' W 093°13'4 4.1
2016-Aug-28 09:33N 30°03' W 093°16'1 0.6
2016-Aug-28 08:19N 30°04' W 093°16'1 0.9
2016-Aug-28 07:33N 30°04' W 093°17'3 2.5
2016-Aug-28 06:33N 30°06' W 093°19'0 0.0
2016-Aug-28 05:33N 30°06' W 093°19'0 0.1
2016-Aug-28 04:33N 30°06' W 093°19'4 3.6
2016-Aug-28 03:33N 30°04' W 093°22'1 1.3
2016-Aug-28 02:33N 30°04' W 093°23'4 4.1
2016-Aug-28 01:30N 30°04' W 093°28'0 0.0
2016-Aug-28 00:33N 30°04' W 093°28'4 4.3
2016-Aug-27 23:34N 30°04' W 093°33'5 5.1
2016-Aug-27 22:34N 30°04' W 093°39'4 3.8
2016-Aug-27 21:34N 30°05' W 093°43'0 0.2
2016-Aug-27 20:31N 30°05' W 093°44'0 0.0
2016-Aug-27 19:31N 30°05' W 093°44'0 0.0
2016-Aug-27 18:31N 30°05' W 093°44'0 0.0
2016-Aug-27 17:31N 30°05' W 093°44'0 0.0
2016-Aug-27 16:31N 30°05' W 093°44'0 0.0
2016-Aug-27 15:28N 30°05' W 093°44'0 0.0
2016-Aug-27 14:31N 30°05' W 093°44'0 0.0
2016-Aug-27 13:31N 30°05' W 093°44'0 0.0
2016-Aug-27 12:28N 30°05' W 093°44'0 0.0
2016-Aug-27 11:31N 30°05' W 093°44'0 0.0
2016-Aug-27 10:31N 30°05' W 093°44'0 0.0
2016-Aug-27 09:31N 30°05' W 093°44'0 0.0
2016-Aug-27 08:31N 30°05' W 093°44'0 0.0
2016-Aug-27 07:31N 30°05' W 093°44'0 0.0
2016-Aug-27 06:31N 30°05' W 093°44'0 0.0
2016-Aug-27 04:16N 30°05' W 093°44'0 0.0
2016-Aug-27 03:31N 30°05' W 093°44'0 0.0
2016-Aug-27 02:31N 30°05' W 093°44'0 0.0
2016-Aug-27 00:31N 30°05' W 093°44'0 0.4
2016-Aug-26 23:30N 30°05' W 093°44'0 0.0
2016-Aug-26 22:33N 30°05' W 093°44'0 0.4
2016-Aug-26 21:23N 30°05' W 093°44'0 0.0
2016-Aug-26 20:29N 30°05' W 093°44'0 0.5
2016-Aug-26 19:30N 30°05' W 093°43'4 4.5
2016-Aug-26 18:33N 30°01' W 093°46'7 6.5
2016-Aug-26 17:24N 29°56' W 093°52'5 4.0
2016-Aug-26 16:07N 29°52' W 093°56'5 7.8
2016-Aug-26 15:32N 29°55' W 093°53'7 0.1
2016-Aug-24 13:23N 30°01' W 093°59'1 0.7
2016-Aug-24 12:25N 30°01' W 093°58'2 2.8
2016-Aug-24 11:33N 29°59' W 093°56'1 0.1
2016-Aug-24 01:13N 29°60' W 093°55'3 3.8
2016-Aug-24 00:24N 29°58' W 093°52'1 1.1
2016-Aug-23 23:32N 29°59' W 093°52'2 0.1
2016-Aug-23 07:29N 29°60' W 093°55'0 0.0
2016-Aug-23 06:32N 29°60' W 093°55'0 0.0
2016-Aug-23 05:32N 29°60' W 093°55'0 0.0
2016-Aug-23 04:29N 29°60' W 093°55'0 0.0
2016-Aug-23 01:08N 29°60' W 093°55'0 0.0
2016-Aug-23 00:11N 29°60' W 093°55'0 0.0
2016-Aug-22 21:23N 29°60' W 093°55'  
2016-Aug-20 15:18N 29°59' W 093°53'4 4.9
2016-Aug-20 14:31N 29°55' W 093°53'7 6.2
2016-Aug-20 13:27N 29°50' W 093°57'4 4.2
2016-Aug-20 12:30N 29°47' W 094°01'5 4.9
2016-Aug-20 11:27N 29°44' W 094°06'18 4.6
2016-Aug-20 07:26N 29°36' W 094°24'4 4.0
2016-Aug-20 06:22N 29°33' W 094°28'22 3.1
2016-Aug-19 23:32N 29°31' W 094°53'7 7.1
2016-Aug-19 22:33N 29°36' W 094°57'7 7.0
2016-Aug-19 21:33N 29°43' W 095°01'5 4.7
2016-Aug-19 20:32N 29°46' W 095°05'  

Dump ship's entire track history